sensor_id;sensor_type;location;lat;lon;timestamp;temperature;humidity
69335;SHT31;56477;52.742;15.242;2023-07-13T00:02:24;18.09;72.53
69335;SHT31;56477;52.742;15.242;2023-07-13T00:04:50;18.13;72.66
69335;SHT31;56477;52.742;15.242;2023-07-13T00:07:16;18.08;72.97
69335;SHT31;56477;52.742;15.242;2023-07-13T00:09:46;18.04;73.46
69335;SHT31;56477;52.742;15.242;2023-07-13T00:12:24;17.92;73.99
69335;SHT31;56477;52.742;15.242;2023-07-13T00:14:51;17.94;73.96
69335;SHT31;56477;52.742;15.242;2023-07-13T00:17:16;17.94;74.06
69335;SHT31;56477;52.742;15.242;2023-07-13T00:19:42;17.89;74.44
69335;SHT31;56477;52.742;15.242;2023-07-13T00:22:08;17.84;74.68
69335;SHT31;56477;52.742;15.242;2023-07-13T00:24:34;17.81;74.90
69335;SHT31;56477;52.742;15.242;2023-07-13T00:27:01;17.81;75.18
69335;SHT31;56477;52.742;15.242;2023-07-13T00:29:27;17.85;75.35
69335;SHT31;56477;52.742;15.242;2023-07-13T00:31:53;17.85;75.41
69335;SHT31;56477;52.742;15.242;2023-07-13T00:34:19;17.85;75.86
69335;SHT31;56477;52.742;15.242;2023-07-13T00:36:44;17.87;75.95
69335;SHT31;56477;52.742;15.242;2023-07-13T00:39:11;17.91;75.98
69335;SHT31;56477;52.742;15.242;2023-07-13T00:41:36;17.94;76.24
69335;SHT31;56477;52.742;15.242;2023-07-13T00:44:02;17.98;76.20
69335;SHT31;56477;52.742;15.242;2023-07-13T00:46:31;18.02;76.25
69335;SHT31;56477;52.742;15.242;2023-07-13T00:49:01;18.06;76.38
69335;SHT31;56477;52.742;15.242;2023-07-13T00:51:32;18.05;76.34
69335;SHT31;56477;52.742;15.242;2023-07-13T00:54:05;18.08;76.89
69335;SHT31;56477;52.742;15.242;2023-07-13T00:56:33;18.09;76.55
69335;SHT31;56477;52.742;15.242;2023-07-13T00:59:00;18.13;76.48
69335;SHT31;56477;52.742;15.242;2023-07-13T01:01:28;18.12;76.62
69335;SHT31;56477;52.742;15.242;2023-07-13T01:03:54;18.06;76.73
69335;SHT31;56477;52.742;15.242;2023-07-13T01:06:19;18.06;76.49
69335;SHT31;56477;52.742;15.242;2023-07-13T01:08:46;18.05;76.34
69335;SHT31;56477;52.742;15.242;2023-07-13T01:11:11;17.99;76.24
69335;SHT31;56477;52.742;15.242;2023-07-13T01:13:37;18.02;76.07
69335;SHT31;56477;52.742;15.242;2023-07-13T01:16:13;17.97;76.26
69335;SHT31;56477;52.742;15.242;2023-07-13T01:18:40;17.92;76.45
69335;SHT31;56477;52.742;15.242;2023-07-13T01:21:06;17.87;76.89
69335;SHT31;56477;52.742;15.242;2023-07-13T01:23:32;17.78;77.18
69335;SHT31;56477;52.742;15.242;2023-07-13T01:25:59;17.77;77.10
69335;SHT31;56477;52.742;15.242;2023-07-13T01:28:27;17.78;77.16
69335;SHT31;56477;52.742;15.242;2023-07-13T01:30:54;17.75;77.22
69335;SHT31;56477;52.742;15.242;2023-07-13T01:33:21;17.77;77.31
69335;SHT31;56477;52.742;15.242;2023-07-13T01:35:47;17.79;77.26
69335;SHT31;56477;52.742;15.242;2023-07-13T01:38:15;17.84;77.37
69335;SHT31;56477;52.742;15.242;2023-07-13T01:40:41;17.85;77.81
69335;SHT31;56477;52.742;15.242;2023-07-13T01:43:07;17.88;77.76
69335;SHT31;56477;52.742;15.242;2023-07-13T01:45:33;17.89;77.51
69335;SHT31;56477;52.742;15.242;2023-07-13T01:47:59;17.84;77.81
69335;SHT31;56477;52.742;15.242;2023-07-13T01:50:26;17.85;77.77
69335;SHT31;56477;52.742;15.242;2023-07-13T01:52:53;17.92;77.22
69335;SHT31;56477;52.742;15.242;2023-07-13T01:55:20;17.94;77.70
69335;SHT31;56477;52.742;15.242;2023-07-13T01:57:46;18.01;77.19
69335;SHT31;56477;52.742;15.242;2023-07-13T02:00:13;18.05;77.15
69335;SHT31;56477;52.742;15.242;2023-07-13T02:02:39;18.05;76.82
69335;SHT31;56477;52.742;15.242;2023-07-13T02:05:06;18.06;76.96
69335;SHT31;56477;52.742;15.242;2023-07-13T02:07:32;18.05;77.18
69335;SHT31;56477;52.742;15.242;2023-07-13T02:09:58;18.08;77.43
69335;SHT31;56477;52.742;15.242;2023-07-13T02:12:24;18.04;76.94
69335;SHT31;56477;52.742;15.242;2023-07-13T02:28:35;17.84;78.08
69335;SHT31;56477;52.742;15.242;2023-07-13T02:31:10;17.78;78.92
69335;SHT31;56477;52.742;15.242;2023-07-13T02:33:36;17.75;79.02
69335;SHT31;56477;52.742;15.242;2023-07-13T02:36:02;17.71;78.70
69335;SHT31;56477;52.742;15.242;2023-07-13T02:38:32;17.66;78.78
69335;SHT31;56477;52.742;15.242;2023-07-13T02:41:00;17.67;78.74
69335;SHT31;56477;52.742;15.242;2023-07-13T02:43:27;17.61;78.99
69335;SHT31;56477;52.742;15.242;2023-07-13T02:45:53;17.55;79.24
69335;SHT31;56477;52.742;15.242;2023-07-13T02:48:18;17.48;79.27
69335;SHT31;56477;52.742;15.242;2023-07-13T02:50:45;17.47;79.36
69335;SHT31;56477;52.742;15.242;2023-07-13T02:53:11;17.44;79.14
69335;SHT31;56477;52.742;15.242;2023-07-13T02:55:37;17.43;79.15
69335;SHT31;56477;52.742;15.242;2023-07-13T02:58:02;17.36;79.37
69335;SHT31;56477;52.742;15.242;2023-07-13T03:00:29;17.36;79.25
69335;SHT31;56477;52.742;15.242;2023-07-13T03:02:54;17.33;79.37
69335;SHT31;56477;52.742;15.242;2023-07-13T03:05:23;17.27;79.31
69335;SHT31;56477;52.742;15.242;2023-07-13T03:07:49;17.22;79.47
69335;SHT31;56477;52.742;15.242;2023-07-13T03:10:15;17.18;79.67
69335;SHT31;56477;52.742;15.242;2023-07-13T03:12:42;17.15;79.54
69335;SHT31;56477;52.742;15.242;2023-07-13T03:15:48;17.15;79.62
69335;SHT31;56477;52.742;15.242;2023-07-13T03:18:32;17.13;79.60
69335;SHT31;56477;52.742;15.242;2023-07-13T03:21:17;17.15;79.55
69335;SHT31;56477;52.742;15.242;2023-07-13T03:24:01;17.15;79.57
69335;SHT31;56477;52.742;15.242;2023-07-13T03:26:45;17.16;79.42
69335;SHT31;56477;52.742;15.242;2023-07-13T03:29:11;17.16;79.57
69335;SHT31;56477;52.742;15.242;2023-07-13T03:31:38;17.22;79.26
69335;SHT31;56477;52.742;15.242;2023-07-13T03:34:04;17.23;79.32
69335;SHT31;56477;52.742;15.242;2023-07-13T03:36:31;17.24;79.23
69335;SHT31;56477;52.742;15.242;2023-07-13T03:38:59;17.30;79.22
69335;SHT31;56477;52.742;15.242;2023-07-13T03:41:26;17.33;78.76
69335;SHT31;56477;52.742;15.242;2023-07-13T03:43:52;17.39;78.55
69335;SHT31;56477;52.742;15.242;2023-07-13T03:46:36;17.43;78.18
69335;SHT31;56477;52.742;15.242;2023-07-13T03:49:04;17.43;78.15
69335;SHT31;56477;52.742;15.242;2023-07-13T03:51:30;17.40;78.24
69335;SHT31;56477;52.742;15.242;2023-07-13T03:53:56;17.31;78.42
69335;SHT31;56477;52.742;15.242;2023-07-13T03:56:22;17.23;78.78
69335;SHT31;56477;52.742;15.242;2023-07-13T03:58:50;17.12;79.26
69335;SHT31;56477;52.742;15.242;2023-07-13T04:01:18;17.16;79.06
69335;SHT31;56477;52.742;15.242;2023-07-13T04:03:44;17.12;79.27
69335;SHT31;56477;52.742;15.242;2023-07-13T04:06:20;17.18;78.91
69335;SHT31;56477;52.742;15.242;2023-07-13T04:08:54;17.19;79.22
69335;SHT31;56477;52.742;15.242;2023-07-13T04:11:22;17.10;79.80
69335;SHT31;56477;52.742;15.242;2023-07-13T04:13:49;17.08;79.90
69335;SHT31;56477;52.742;15.242;2023-07-13T04:16:16;17.09;79.70
69335;SHT31;56477;52.742;15.242;2023-07-13T04:18:44;17.13;79.76
69335;SHT31;56477;52.742;15.242;2023-07-13T04:21:10;17.18;79.65
69335;SHT31;56477;52.742;15.242;2023-07-13T04:23:39;17.26;79.50
69335;SHT31;56477;52.742;15.242;2023-07-13T04:26:05;17.34;79.97
69335;SHT31;56477;52.742;15.242;2023-07-13T04:28:32;17.43;79.12
69335;SHT31;56477;52.742;15.242;2023-07-13T04:30:57;17.47;78.53
69335;SHT31;56477;52.742;15.242;2023-07-13T04:33:24;17.54;78.93
69335;SHT31;56477;52.742;15.242;2023-07-13T04:35:51;17.61;78.83
69335;SHT31;56477;52.742;15.242;2023-07-13T04:38:24;17.68;79.32
69335;SHT31;56477;52.742;15.242;2023-07-13T04:40:51;17.64;79.02
69335;SHT31;56477;52.742;15.242;2023-07-13T04:43:18;17.74;78.10
69335;SHT31;56477;52.742;15.242;2023-07-13T04:45:44;17.78;77.91
69335;SHT31;56477;52.742;15.242;2023-07-13T04:48:10;17.87;77.58
69335;SHT31;56477;52.742;15.242;2023-07-13T04:50:36;17.92;77.35
69335;SHT31;56477;52.742;15.242;2023-07-13T04:53:03;18.02;76.86
69335;SHT31;56477;52.742;15.242;2023-07-13T04:55:30;18.12;77.03
69335;SHT31;56477;52.742;15.242;2023-07-13T04:58:14;18.18;77.04
69335;SHT31;56477;52.742;15.242;2023-07-13T05:01:05;18.21;76.35
69335;SHT31;56477;52.742;15.242;2023-07-13T05:03:49;18.28;76.31
69335;SHT31;56477;52.742;15.242;2023-07-13T05:06:33;18.33;75.62
69335;SHT31;56477;52.742;15.242;2023-07-13T05:09:17;18.37;75.32
69335;SHT31;56477;52.742;15.242;2023-07-13T05:12:01;18.56;75.19
69335;SHT31;56477;52.742;15.242;2023-07-13T05:14:45;18.68;75.18
69335;SHT31;56477;52.742;15.242;2023-07-13T05:17:49;18.74;74.64
69335;SHT31;56477;52.742;15.242;2023-07-13T05:20:16;18.80;73.69
69335;SHT31;56477;52.742;15.242;2023-07-13T05:22:42;18.93;74.01
69335;SHT31;56477;52.742;15.242;2023-07-13T05:25:09;19.08;73.78
69335;SHT31;56477;52.742;15.242;2023-07-13T05:27:35;19.19;72.78
69335;SHT31;56477;52.742;15.242;2023-07-13T05:30:03;19.21;72.63
69335;SHT31;56477;52.742;15.242;2023-07-13T05:32:29;19.31;73.89
69335;SHT31;56477;52.742;15.242;2023-07-13T05:34:55;19.36;74.41
69335;SHT31;56477;52.742;15.242;2023-07-13T05:37:21;19.39;74.93
69335;SHT31;56477;52.742;15.242;2023-07-13T05:39:47;19.34;75.38
69335;SHT31;56477;52.742;15.242;2023-07-13T05:42:13;19.39;75.35
69335;SHT31;56477;52.742;15.242;2023-07-13T05:44:39;19.36;75.25
69335;SHT31;56477;52.742;15.242;2023-07-13T05:47:05;19.35;75.73
69335;SHT31;56477;52.742;15.242;2023-07-13T05:49:31;19.39;75.07
69335;SHT31;56477;52.742;15.242;2023-07-13T05:51:57;19.51;75.27
69335;SHT31;56477;52.742;15.242;2023-07-13T05:54:23;19.61;74.87
69335;SHT31;56477;52.742;15.242;2023-07-13T05:56:49;19.70;74.63
69335;SHT31;56477;52.742;15.242;2023-07-13T05:59:15;19.74;74.82
69335;SHT31;56477;52.742;15.242;2023-07-13T06:01:41;19.79;74.22
69335;SHT31;56477;52.742;15.242;2023-07-13T06:04:07;19.80;73.88
69335;SHT31;56477;52.742;15.242;2023-07-13T06:06:33;19.87;73.61
69335;SHT31;56477;52.742;15.242;2023-07-13T06:08:59;19.80;73.95
69335;SHT31;56477;52.742;15.242;2023-07-13T06:11:26;19.83;73.61
69335;SHT31;56477;52.742;15.242;2023-07-13T06:13:53;19.87;74.18
69335;SHT31;56477;52.742;15.242;2023-07-13T06:16:19;19.96;73.85
69335;SHT31;56477;52.742;15.242;2023-07-13T06:18:46;20.14;72.68
69335;SHT31;56477;52.742;15.242;2023-07-13T06:21:20;20.27;70.28
69335;SHT31;56477;52.742;15.242;2023-07-13T06:23:48;20.37;69.20
69335;SHT31;56477;52.742;15.242;2023-07-13T06:26:14;20.35;69.05
69335;SHT31;56477;52.742;15.242;2023-07-13T06:28:40;20.42;68.95
69335;SHT31;56477;52.742;15.242;2023-07-13T06:31:08;20.45;69.05
69335;SHT31;56477;52.742;15.242;2023-07-13T06:33:34;20.59;68.90
69335;SHT31;56477;52.742;15.242;2023-07-13T06:36:02;20.48;68.76
69335;SHT31;56477;52.742;15.242;2023-07-13T06:38:28;20.59;68.01
69335;SHT31;56477;52.742;15.242;2023-07-13T06:40:54;20.68;67.61
69335;SHT31;56477;52.742;15.242;2023-07-13T06:43:20;20.76;68.19
69335;SHT31;56477;52.742;15.242;2023-07-13T06:45:47;20.82;67.91
69335;SHT31;56477;52.742;15.242;2023-07-13T06:48:15;20.89;66.85
69335;SHT31;56477;52.742;15.242;2023-07-13T06:50:42;20.93;67.02
69335;SHT31;56477;52.742;15.242;2023-07-13T06:53:10;21.09;66.56
69335;SHT31;56477;52.742;15.242;2023-07-13T06:55:35;21.06;66.59
69335;SHT31;56477;52.742;15.242;2023-07-13T06:58:02;21.06;65.91
69335;SHT31;56477;52.742;15.242;2023-07-13T07:00:27;21.19;65.13
69335;SHT31;56477;52.742;15.242;2023-07-13T07:02:54;21.17;64.23
69335;SHT31;56477;52.742;15.242;2023-07-13T07:05:19;21.33;64.19
69335;SHT31;56477;52.742;15.242;2023-07-13T07:07:51;21.30;63.89
69335;SHT31;56477;52.742;15.242;2023-07-13T07:10:20;21.43;63.92
69335;SHT31;56477;52.742;15.242;2023-07-13T07:12:47;21.54;62.39
69335;SHT31;56477;52.742;15.242;2023-07-13T07:15:13;21.65;63.48
69335;SHT31;56477;52.742;15.242;2023-07-13T07:17:39;21.78;61.98
69335;SHT31;56477;52.742;15.242;2023-07-13T07:20:05;22.02;60.66
69335;SHT31;56477;52.742;15.242;2023-07-13T07:22:32;22.60;59.66
69335;SHT31;56477;52.742;15.242;2023-07-13T07:24:58;23.55;57.68
69335;SHT31;56477;52.742;15.242;2023-07-13T07:27:24;24.14;56.11
69335;SHT31;56477;52.742;15.242;2023-07-13T07:29:50;24.10;53.07
69335;SHT31;56477;52.742;15.242;2023-07-13T07:32:16;24.62;51.78
69335;SHT31;56477;52.742;15.242;2023-07-13T07:34:42;25.26;50.59
69335;SHT31;56477;52.742;15.242;2023-07-13T07:37:13;25.70;48.97
69335;SHT31;56477;52.742;15.242;2023-07-13T07:39:39;26.02;49.32
69335;SHT31;56477;52.742;15.242;2023-07-13T07:42:06;26.02;48.69
69335;SHT31;56477;52.742;15.242;2023-07-13T07:44:32;25.47;49.52
69335;SHT31;56477;52.742;15.242;2023-07-13T07:46:58;25.46;49.25
69335;SHT31;56477;52.742;15.242;2023-07-13T07:49:24;26.01;47.84
69335;SHT31;56477;52.742;15.242;2023-07-13T07:51:51;26.21;47.66
69335;SHT31;56477;52.742;15.242;2023-07-13T07:54:17;26.15;47.15
69335;SHT31;56477;52.742;15.242;2023-07-13T07:56:43;25.58;48.10
69335;SHT31;56477;52.742;15.242;2023-07-13T07:59:09;26.01;49.10
69335;SHT31;56477;52.742;15.242;2023-07-13T08:01:36;25.70;48.24
69335;SHT31;56477;52.742;15.242;2023-07-13T08:04:02;26.15;47.86
69335;SHT31;56477;52.742;15.242;2023-07-13T08:06:28;26.92;45.97
69335;SHT31;56477;52.742;15.242;2023-07-13T08:08:54;26.71;45.91
69335;SHT31;56477;52.742;15.242;2023-07-13T08:11:22;27.39;45.79
69335;SHT31;56477;52.742;15.242;2023-07-13T08:13:49;28.54;43.71
69335;SHT31;56477;52.742;15.242;2023-07-13T08:16:15;26.95;45.68
69335;SHT31;56477;52.742;15.242;2023-07-13T08:18:41;27.49;45.27
69335;SHT31;56477;52.742;15.242;2023-07-13T08:21:08;28.11;43.11
69335;SHT31;56477;52.742;15.242;2023-07-13T08:23:35;28.72;43.44
69335;SHT31;56477;52.742;15.242;2023-07-13T08:26:01;27.98;43.41
69335;SHT31;56477;52.742;15.242;2023-07-13T08:28:28;26.91;45.41
69335;SHT31;56477;52.742;15.242;2023-07-13T08:30:55;26.90;44.77
69335;SHT31;56477;52.742;15.242;2023-07-13T08:33:22;27.94;44.37
69335;SHT31;56477;52.742;15.242;2023-07-13T08:35:51;28.74;42.45
69335;SHT31;56477;52.742;15.242;2023-07-13T08:38:18;28.25;42.72
69335;SHT31;56477;52.742;15.242;2023-07-13T08:40:54;27.11;44.93
69335;SHT31;56477;52.742;15.242;2023-07-13T08:43:26;27.49;43.69
69335;SHT31;56477;52.742;15.242;2023-07-13T08:45:56;27.37;45.03
69335;SHT31;56477;52.742;15.242;2023-07-13T08:48:42;28.52;43.82
69335;SHT31;56477;52.742;15.242;2023-07-13T08:54:03;27.86;43.75
69335;SHT31;56477;52.742;15.242;2023-07-13T08:56:32;28.03;43.80
69335;SHT31;56477;52.742;15.242;2023-07-13T08:59:16;27.98;44.32
69335;SHT31;56477;52.742;15.242;2023-07-13T09:01:58;28.56;42.10
69335;SHT31;56477;52.742;15.242;2023-07-13T09:04:31;28.56;42.82
69335;SHT31;56477;52.742;15.242;2023-07-13T09:09:50;26.28;44.83
69335;SHT31;56477;52.742;15.242;2023-07-13T09:15:37;24.97;46.99
69335;SHT31;56477;52.742;15.242;2023-07-13T09:20:45;26.77;45.41
69335;SHT31;56477;52.742;15.242;2023-07-13T09:23:19;26.94;43.77
69335;SHT31;56477;52.742;15.242;2023-07-13T09:25:47;26.91;44.81
69335;SHT31;56477;52.742;15.242;2023-07-13T09:28:20;27.16;43.12
69335;SHT31;56477;52.742;15.242;2023-07-13T09:33:29;27.10;43.74
69335;SHT31;56477;52.742;15.242;2023-07-13T09:35:57;26.84;42.87
69335;SHT31;56477;52.742;15.242;2023-07-13T09:38:25;27.05;43.06
69335;SHT31;56477;52.742;15.242;2023-07-13T09:41:04;26.97;41.63
69335;SHT31;56477;52.742;15.242;2023-07-13T09:43:36;27.83;40.68
69335;SHT31;56477;52.742;15.242;2023-07-13T09:46:02;27.86;39.57
69335;SHT31;56477;52.742;15.242;2023-07-13T09:48:36;26.77;43.24
69335;SHT31;56477;52.742;15.242;2023-07-13T09:51:14;26.73;43.25
69335;SHT31;56477;52.742;15.242;2023-07-13T09:53:42;26.23;43.58
69335;SHT31;56477;52.742;15.242;2023-07-13T09:56:23;26.05;45.06
69335;SHT31;56477;52.742;15.242;2023-07-13T09:58:49;25.86;45.44
69335;SHT31;56477;52.742;15.242;2023-07-13T10:01:15;25.65;46.31
69335;SHT31;56477;52.742;15.242;2023-07-13T10:03:53;24.89;46.76
69335;SHT31;56477;52.742;15.242;2023-07-13T10:06:20;24.54;47.69
69335;SHT31;56477;52.742;15.242;2023-07-13T10:08:50;24.27;47.70
69335;SHT31;56477;52.742;15.242;2023-07-13T10:13:57;24.16;48.46
69335;SHT31;56477;52.742;15.242;2023-07-13T10:16:34;24.06;48.17
69335;SHT31;56477;52.742;15.242;2023-07-13T10:21:36;23.92;47.57
69335;SHT31;56477;52.742;15.242;2023-07-13T10:24:14;24.11;47.35
69335;SHT31;56477;52.742;15.242;2023-07-13T10:27:03;23.99;47.65
69335;SHT31;56477;52.742;15.242;2023-07-13T10:29:35;23.96;46.79
69335;SHT31;56477;52.742;15.242;2023-07-13T10:32:07;24.03;46.36
69335;SHT31;56477;52.742;15.242;2023-07-13T10:34:35;23.96;46.33
69335;SHT31;56477;52.742;15.242;2023-07-13T10:37:01;23.90;46.90
69335;SHT31;56477;52.742;15.242;2023-07-13T10:39:28;23.73;46.50
69335;SHT31;56477;52.742;15.242;2023-07-13T10:42:02;23.69;47.06
69335;SHT31;56477;52.742;15.242;2023-07-13T10:44:32;23.53;46.69
69335;SHT31;56477;52.742;15.242;2023-07-13T10:47:03;23.58;47.01
69335;SHT31;56477;52.742;15.242;2023-07-13T10:49:33;23.60;47.24
69335;SHT31;56477;52.742;15.242;2023-07-13T10:52:01;23.65;47.66
69335;SHT31;56477;52.742;15.242;2023-07-13T10:54:30;23.69;47.76
69335;SHT31;56477;52.742;15.242;2023-07-13T10:57:18;23.79;47.91
69335;SHT31;56477;52.742;15.242;2023-07-13T11:00:10;23.80;46.80
69335;SHT31;56477;52.742;15.242;2023-07-13T11:02:33;24.24;47.49
69335;SHT31;56477;52.742;15.242;2023-07-13T11:05:17;24.11;47.21
69335;SHT31;56477;52.742;15.242;2023-07-13T11:08:02;24.22;47.72
69335;SHT31;56477;52.742;15.242;2023-07-13T11:10:52;24.80;47.10
69335;SHT31;56477;52.742;15.242;2023-07-13T11:19:08;25.43;47.48
69335;SHT31;56477;52.742;15.242;2023-07-13T11:21:34;26.77;44.12
69335;SHT31;56477;52.742;15.242;2023-07-13T11:24:15;27.42;45.19
69335;SHT31;56477;52.742;15.242;2023-07-13T11:32:20;26.40;42.66
69335;SHT31;56477;52.742;15.242;2023-07-13T11:34:47;27.04;41.86
69335;SHT31;56477;52.742;15.242;2023-07-13T11:37:16;26.69;42.90
69335;SHT31;56477;52.742;15.242;2023-07-13T11:39:44;26.19;44.54
69335;SHT31;56477;52.742;15.242;2023-07-13T11:42:17;26.86;44.92
69335;SHT31;56477;52.742;15.242;2023-07-13T11:44:46;26.98;43.90
69335;SHT31;56477;52.742;15.242;2023-07-13T11:47:22;26.52;44.67
69335;SHT31;56477;52.742;15.242;2023-07-13T11:49:53;27.48;43.41
69335;SHT31;56477;52.742;15.242;2023-07-13T11:52:32;27.70;42.55
69335;SHT31;56477;52.742;15.242;2023-07-13T11:55:01;27.48;43.31
69335;SHT31;56477;52.742;15.242;2023-07-13T11:57:33;26.88;44.29
69335;SHT31;56477;52.742;15.242;2023-07-13T12:00:21;27.29;43.85
69335;SHT31;56477;52.742;15.242;2023-07-13T12:02:51;28.06;41.85
69335;SHT31;56477;52.742;15.242;2023-07-13T12:05:19;28.55;42.47
69335;SHT31;56477;52.742;15.242;2023-07-13T12:07:47;29.03;41.69
69335;SHT31;56477;52.742;15.242;2023-07-13T12:12:47;28.64;40.63
69335;SHT31;56477;52.742;15.242;2023-07-13T12:15:13;28.25;40.52
69335;SHT31;56477;52.742;15.242;2023-07-13T12:17:40;27.46;42.17
69335;SHT31;56477;52.742;15.242;2023-07-13T12:20:19;27.25;43.77
69335;SHT31;56477;52.742;15.242;2023-07-13T12:22:47;26.64;43.38
69335;SHT31;56477;52.742;15.242;2023-07-13T12:25:14;25.92;44.44
69335;SHT31;56477;52.742;15.242;2023-07-13T12:27:40;26.36;44.22
69335;SHT31;56477;52.742;15.242;2023-07-13T12:35:23;26.67;43.68
69335;SHT31;56477;52.742;15.242;2023-07-13T12:37:51;26.94;40.88
69335;SHT31;56477;52.742;15.242;2023-07-13T12:40:32;26.91;42.37
69335;SHT31;56477;52.742;15.242;2023-07-13T12:43:00;26.91;41.35
69335;SHT31;56477;52.742;15.242;2023-07-13T12:45:30;26.52;40.42
69335;SHT31;56477;52.742;15.242;2023-07-13T12:48:12;26.54;39.40
69335;SHT31;56477;52.742;15.242;2023-07-13T12:50:41;25.95;39.66
69335;SHT31;56477;52.742;15.242;2023-07-13T12:53:27;26.83;38.72
69335;SHT31;56477;52.742;15.242;2023-07-13T12:55:57;26.54;39.97
69335;SHT31;56477;52.742;15.242;2023-07-13T12:58:36;26.53;41.24
69335;SHT31;56477;52.742;15.242;2023-07-13T13:01:02;25.81;42.83
69335;SHT31;56477;52.742;15.242;2023-07-13T13:03:36;25.70;41.51
69335;SHT31;56477;52.742;15.242;2023-07-13T13:08:46;26.47;42.38
69335;SHT31;56477;52.742;15.242;2023-07-13T13:11:15;26.49;42.49
69335;SHT31;56477;52.742;15.242;2023-07-13T13:13:42;26.18;42.81
69335;SHT31;56477;52.742;15.242;2023-07-13T13:16:32;25.73;41.89
69335;SHT31;56477;52.742;15.242;2023-07-13T13:19:10;25.53;43.65
69335;SHT31;56477;52.742;15.242;2023-07-13T13:21:37;25.58;44.79
69335;SHT31;56477;52.742;15.242;2023-07-13T13:24:11;25.27;45.12
69335;SHT31;56477;52.742;15.242;2023-07-13T13:26:36;25.34;45.33
69335;SHT31;56477;52.742;15.242;2023-07-13T13:29:13;25.16;45.24
69335;SHT31;56477;52.742;15.242;2023-07-13T13:31:40;25.22;46.13
69335;SHT31;56477;52.742;15.242;2023-07-13T13:34:11;25.51;45.15
69335;SHT31;56477;52.742;15.242;2023-07-13T13:36:37;25.71;45.41
69335;SHT31;56477;52.742;15.242;2023-07-13T13:39:27;26.11;44.24
69335;SHT31;56477;52.742;15.242;2023-07-13T13:41:53;25.60;44.41
69335;SHT31;56477;52.742;15.242;2023-07-13T13:44:21;25.36;43.95
69335;SHT31;56477;52.742;15.242;2023-07-13T13:46:49;25.36;44.15
69335;SHT31;56477;52.742;15.242;2023-07-13T13:49:19;25.03;44.75
69335;SHT31;56477;52.742;15.242;2023-07-13T13:51:46;25.13;44.58
69335;SHT31;56477;52.742;15.242;2023-07-13T13:54:14;25.10;44.94
69335;SHT31;56477;52.742;15.242;2023-07-13T13:56:42;25.09;44.31
69335;SHT31;56477;52.742;15.242;2023-07-13T13:59:09;24.97;44.64
69335;SHT31;56477;52.742;15.242;2023-07-13T14:01:35;25.20;44.18
69335;SHT31;56477;52.742;15.242;2023-07-13T14:04:02;25.70;44.90
69335;SHT31;56477;52.742;15.242;2023-07-13T14:06:27;26.23;42.75
69335;SHT31;56477;52.742;15.242;2023-07-13T14:08:54;26.64;41.94
69335;SHT31;56477;52.742;15.242;2023-07-13T14:11:23;26.46;41.44
69335;SHT31;56477;52.742;15.242;2023-07-13T14:13:57;26.31;42.17
69335;SHT31;56477;52.742;15.242;2023-07-13T14:16:28;26.36;42.48
69335;SHT31;56477;52.742;15.242;2023-07-13T14:18:55;25.84;41.39
69335;SHT31;56477;52.742;15.242;2023-07-13T14:21:24;25.84;41.95
69335;SHT31;56477;52.742;15.242;2023-07-13T14:23:50;26.39;41.62
69335;SHT31;56477;52.742;15.242;2023-07-13T14:26:23;26.47;41.25
69335;SHT31;56477;52.742;15.242;2023-07-13T14:28:54;26.18;41.60
69335;SHT31;56477;52.742;15.242;2023-07-13T14:31:21;25.58;41.42
69335;SHT31;56477;52.742;15.242;2023-07-13T14:33:48;25.38;42.35
69335;SHT31;56477;52.742;15.242;2023-07-13T14:36:28;25.15;43.12
69335;SHT31;56477;52.742;15.242;2023-07-13T14:38:56;25.50;42.68
69335;SHT31;56477;52.742;15.242;2023-07-13T14:41:22;25.75;43.54
69335;SHT31;56477;52.742;15.242;2023-07-13T14:43:49;25.82;42.01
69335;SHT31;56477;52.742;15.242;2023-07-13T14:46:34;25.77;42.47
69335;SHT31;56477;52.742;15.242;2023-07-13T14:49:28;25.60;42.12
69335;SHT31;56477;52.742;15.242;2023-07-13T14:52:00;26.02;40.98
69335;SHT31;56477;52.742;15.242;2023-07-13T14:54:27;26.25;40.84
69335;SHT31;56477;52.742;15.242;2023-07-13T14:56:53;26.32;41.06
69335;SHT31;56477;52.742;15.242;2023-07-13T14:59:19;26.43;40.85
69335;SHT31;56477;52.742;15.242;2023-07-13T15:01:47;26.36;40.89
69335;SHT31;56477;52.742;15.242;2023-07-13T15:04:14;26.59;41.48
69335;SHT31;56477;52.742;15.242;2023-07-13T15:07:01;26.52;42.58
69335;SHT31;56477;52.742;15.242;2023-07-13T15:09:28;26.01;40.50
69335;SHT31;56477;52.742;15.242;2023-07-13T15:11:58;25.38;42.38
69335;SHT31;56477;52.742;15.242;2023-07-13T15:14:25;25.23;41.55
69335;SHT31;56477;52.742;15.242;2023-07-13T15:16:53;25.33;42.24
69335;SHT31;56477;52.742;15.242;2023-07-13T15:19:20;25.71;41.90
69335;SHT31;56477;52.742;15.242;2023-07-13T15:21:47;25.73;42.25
69335;SHT31;56477;52.742;15.242;2023-07-13T15:24:14;25.55;41.61
69335;SHT31;56477;52.742;15.242;2023-07-13T15:26:41;25.34;41.95
69335;SHT31;56477;52.742;15.242;2023-07-13T15:29:11;25.51;41.76
69335;SHT31;56477;52.742;15.242;2023-07-13T15:31:37;25.84;41.30
69335;SHT31;56477;52.742;15.242;2023-07-13T15:34:11;25.70;41.91
69335;SHT31;56477;52.742;15.242;2023-07-13T15:36:37;25.61;42.52
69335;SHT31;56477;52.742;15.242;2023-07-13T15:39:03;25.98;41.99
69335;SHT31;56477;52.742;15.242;2023-07-13T15:41:31;26.11;41.47
69335;SHT31;56477;52.742;15.242;2023-07-13T15:43:58;26.23;42.33
69335;SHT31;56477;52.742;15.242;2023-07-13T15:46:26;26.40;41.79
69335;SHT31;56477;52.742;15.242;2023-07-13T15:48:53;26.39;41.21
69335;SHT31;56477;52.742;15.242;2023-07-13T15:51:28;26.42;41.31
69335;SHT31;56477;52.742;15.242;2023-07-13T15:53:58;25.89;42.77
69335;SHT31;56477;52.742;15.242;2023-07-13T15:56:27;25.71;42.08
69335;SHT31;56477;52.742;15.242;2023-07-13T15:58:54;25.34;42.31
69335;SHT31;56477;52.742;15.242;2023-07-13T16:01:22;25.48;42.19
69335;SHT31;56477;52.742;15.242;2023-07-13T16:03:49;25.81;41.81
69335;SHT31;56477;52.742;15.242;2023-07-13T16:06:23;25.96;41.11
69335;SHT31;56477;52.742;15.242;2023-07-13T16:08:51;26.03;40.09
69335;SHT31;56477;52.742;15.242;2023-07-13T16:11:34;25.74;40.32
69335;SHT31;56477;52.742;15.242;2023-07-13T16:14:00;25.64;40.01
69335;SHT31;56477;52.742;15.242;2023-07-13T16:16:29;25.80;38.70
69335;SHT31;56477;52.742;15.242;2023-07-13T16:18:57;25.86;39.28
69335;SHT31;56477;52.742;15.242;2023-07-13T16:21:26;25.77;39.98
69335;SHT31;56477;52.742;15.242;2023-07-13T16:23:53;25.94;40.32
69335;SHT31;56477;52.742;15.242;2023-07-13T16:26:28;25.78;40.51